sensor_id;sensor_type;location;lat;lon;timestamp;temperature;humidity
21039;DHT22;10678;51.002;4.786;2023-11-19T00:01:40;14.60;99.90
21039;DHT22;10678;51.002;4.786;2023-11-19T00:04:05;14.60;99.90
21039;DHT22;10678;51.002;4.786;2023-11-19T00:06:31;14.70;99.90
21039;DHT22;10678;51.002;4.786;2023-11-19T00:08:57;14.60;99.90
21039;DHT22;10678;51.002;4.786;2023-11-19T00:11:22;14.70;99.90
21039;DHT22;10678;51.002;4.786;2023-11-19T00:13:48;14.60;99.90
21039;DHT22;10678;51.002;4.786;2023-11-19T00:16:13;14.50;99.90
21039;DHT22;10678;51.002;4.786;2023-11-19T00:18:39;14.50;99.90
21039;DHT22;10678;51.002;4.786;2023-11-19T00:21:05;14.60;99.90
21039;DHT22;10678;51.002;4.786;2023-11-19T00:23:31;14.70;99.90
21039;DHT22;10678;51.002;4.786;2023-11-19T00:25:57;14.60;99.90
21039;DHT22;10678;51.002;4.786;2023-11-19T00:28:23;14.60;99.90
21039;DHT22;10678;51.002;4.786;2023-11-19T00:30:49;14.50;99.90
21039;DHT22;10678;51.002;4.786;2023-11-19T00:33:15;14.50;99.90
21039;DHT22;10678;51.002;4.786;2023-11-19T00:35:40;14.50;99.90
21039;DHT22;10678;51.002;4.786;2023-11-19T00:38:06;14.50;99.90
21039;DHT22;10678;51.002;4.786;2023-11-19T00:40:32;14.40;99.90
21039;DHT22;10678;51.002;4.786;2023-11-19T00:42:58;14.50;99.90
21039;DHT22;10678;51.002;4.786;2023-11-19T00:45:23;14.40;99.90
21039;DHT22;10678;51.002;4.786;2023-11-19T00:47:49;14.40;99.90
21039;DHT22;10678;51.002;4.786;2023-11-19T00:50:15;14.40;99.90
21039;DHT22;10678;51.002;4.786;2023-11-19T00:52:41;14.40;99.90
21039;DHT22;10678;51.002;4.786;2023-11-19T00:55:07;14.40;99.90
21039;DHT22;10678;51.002;4.786;2023-11-19T00:57:32;14.50;99.90
21039;DHT22;10678;51.002;4.786;2023-11-19T00:59:59;14.60;99.90
21039;DHT22;10678;51.002;4.786;2023-11-19T01:02:25;14.60;99.90
21039;DHT22;10678;51.002;4.786;2023-11-19T01:04:50;14.60;99.90
21039;DHT22;10678;51.002;4.786;2023-11-19T01:07:16;14.50;99.90
21039;DHT22;10678;51.002;4.786;2023-11-19T01:09:42;14.50;99.90
21039;DHT22;10678;51.002;4.786;2023-11-19T01:12:08;14.50;99.90
21039;DHT22;10678;51.002;4.786;2023-11-19T01:14:34;14.60;99.90
21039;DHT22;10678;51.002;4.786;2023-11-19T01:17:01;14.50;99.90
21039;DHT22;10678;51.002;4.786;2023-11-19T01:19:26;14.60;99.90
21039;DHT22;10678;51.002;4.786;2023-11-19T01:21:54;14.70;99.90
21039;DHT22;10678;51.002;4.786;2023-11-19T01:24:20;14.70;99.90
21039;DHT22;10678;51.002;4.786;2023-11-19T01:26:46;14.60;99.90
21039;DHT22;10678;51.002;4.786;2023-11-19T01:29:14;14.60;99.90
21039;DHT22;10678;51.002;4.786;2023-11-19T01:31:45;14.50;99.90
21039;DHT22;10678;51.002;4.786;2023-11-19T01:34:12;14.50;99.90
21039;DHT22;10678;51.002;4.786;2023-11-19T01:36:38;14.40;99.90
21039;DHT22;10678;51.002;4.786;2023-11-19T01:39:04;14.30;99.90
21039;DHT22;10678;51.002;4.786;2023-11-19T01:41:34;14.40;99.90
21039;DHT22;10678;51.002;4.786;2023-11-19T01:44:00;14.40;99.90
21039;DHT22;10678;51.002;4.786;2023-11-19T01:46:26;14.40;99.90
21039;DHT22;10678;51.002;4.786;2023-11-19T01:48:52;14.50;99.90
21039;DHT22;10678;51.002;4.786;2023-11-19T01:51:19;14.40;99.90
21039;DHT22;10678;51.002;4.786;2023-11-19T01:53:47;14.40;99.90
21039;DHT22;10678;51.002;4.786;2023-11-19T01:56:14;14.50;99.90
21039;DHT22;10678;51.002;4.786;2023-11-19T01:58:42;14.40;99.90
21039;DHT22;10678;51.002;4.786;2023-11-19T02:01:09;14.40;99.90
21039;DHT22;10678;51.002;4.786;2023-11-19T02:03:34;14.30;99.90
21039;DHT22;10678;51.002;4.786;2023-11-19T02:06:00;14.40;99.90
21039;DHT22;10678;51.002;4.786;2023-11-19T02:08:26;14.40;99.90
21039;DHT22;10678;51.002;4.786;2023-11-19T02:10:52;14.30;99.90
21039;DHT22;10678;51.002;4.786;2023-11-19T02:13:20;14.20;99.90
21039;DHT22;10678;51.002;4.786;2023-11-19T02:15:46;14.10;99.90
21039;DHT22;10678;51.002;4.786;2023-11-19T02:18:19;14.10;99.90
21039;DHT22;10678;51.002;4.786;2023-11-19T02:20:45;14.10;99.90
21039;DHT22;10678;51.002;4.786;2023-11-19T02:23:12;13.90;99.90
21039;DHT22;10678;51.002;4.786;2023-11-19T02:25:40;13.90;99.90
21039;DHT22;10678;51.002;4.786;2023-11-19T02:28:06;13.80;99.90
21039;DHT22;10678;51.002;4.786;2023-11-19T02:30:32;13.80;99.90
21039;DHT22;10678;51.002;4.786;2023-11-19T02:33:00;13.80;99.90
21039;DHT22;10678;51.002;4.786;2023-11-19T02:35:31;13.90;99.90
21039;DHT22;10678;51.002;4.786;2023-11-19T02:37:58;13.80;99.90
21039;DHT22;10678;51.002;4.786;2023-11-19T02:40:25;13.90;99.90
21039;DHT22;10678;51.002;4.786;2023-11-19T02:42:51;13.80;99.90
21039;DHT22;10678;51.002;4.786;2023-11-19T02:45:18;13.80;99.90
21039;DHT22;10678;51.002;4.786;2023-11-19T02:47:44;13.80;99.90
21039;DHT22;10678;51.002;4.786;2023-11-19T02:50:13;13.80;99.90
21039;DHT22;10678;51.002;4.786;2023-11-19T02:52:42;13.90;99.90
21039;DHT22;10678;51.002;4.786;2023-11-19T02:55:09;13.90;99.90
21039;DHT22;10678;51.002;4.786;2023-11-19T02:57:35;13.90;99.90
21039;DHT22;10678;51.002;4.786;2023-11-19T03:00:02;14.00;99.90
21039;DHT22;10678;51.002;4.786;2023-11-19T03:02:40;13.80;99.90
21039;DHT22;10678;51.002;4.786;2023-11-19T03:05:12;14.00;99.90
21039;DHT22;10678;51.002;4.786;2023-11-19T03:07:43;14.10;99.90
21039;DHT22;10678;51.002;4.786;2023-11-19T03:10:12;14.00;99.90
21039;DHT22;10678;51.002;4.786;2023-11-19T03:12:41;13.90;99.90
21039;DHT22;10678;51.002;4.786;2023-11-19T03:15:08;14.00;99.90
21039;DHT22;10678;51.002;4.786;2023-11-19T03:17:39;14.10;99.90
21039;DHT22;10678;51.002;4.786;2023-11-19T03:20:06;14.00;99.90
21039;DHT22;10678;51.002;4.786;2023-11-19T03:22:36;13.90;99.90
21039;DHT22;10678;51.002;4.786;2023-11-19T03:25:02;13.80;99.90
21039;DHT22;10678;51.002;4.786;2023-11-19T03:27:28;13.80;99.90
21039;DHT22;10678;51.002;4.786;2023-11-19T03:29:53;13.70;99.90
21039;DHT22;10678;51.002;4.786;2023-11-19T03:32:19;13.70;99.90
21039;DHT22;10678;51.002;4.786;2023-11-19T03:34:45;13.60;99.90
21039;DHT22;10678;51.002;4.786;2023-11-19T03:37:11;13.50;99.90
21039;DHT22;10678;51.002;4.786;2023-11-19T03:39:37;13.50;99.90
21039;DHT22;10678;51.002;4.786;2023-11-19T03:42:02;13.40;99.90
21039;DHT22;10678;51.002;4.786;2023-11-19T03:44:28;13.20;99.90
21039;DHT22;10678;51.002;4.786;2023-11-19T03:46:54;13.30;99.90
21039;DHT22;10678;51.002;4.786;2023-11-19T03:49:20;13.30;99.90
21039;DHT22;10678;51.002;4.786;2023-11-19T03:51:45;13.20;99.90
21039;DHT22;10678;51.002;4.786;2023-11-19T03:54:11;13.10;99.90
21039;DHT22;10678;51.002;4.786;2023-11-19T03:56:37;13.20;99.90
21039;DHT22;10678;51.002;4.786;2023-11-19T03:59:03;13.20;99.90
21039;DHT22;10678;51.002;4.786;2023-11-19T04:01:28;13.10;99.90
21039;DHT22;10678;51.002;4.786;2023-11-19T04:03:54;13.20;99.90
21039;DHT22;10678;51.002;4.786;2023-11-19T04:06:21;13.20;99.90
21039;DHT22;10678;51.002;4.786;2023-11-19T04:08:47;13.10;99.90
21039;DHT22;10678;51.002;4.786;2023-11-19T04:11:12;13.10;99.90
21039;DHT22;10678;51.002;4.786;2023-11-19T04:13:38;13.10;99.90
21039;DHT22;10678;51.002;4.786;2023-11-19T04:16:04;13.20;99.90
21039;DHT22;10678;51.002;4.786;2023-11-19T04:18:30;13.10;99.90
21039;DHT22;10678;51.002;4.786;2023-11-19T04:20:57;13.00;99.90
21039;DHT22;10678;51.002;4.786;2023-11-19T04:23:23;13.10;99.90
21039;DHT22;10678;51.002;4.786;2023-11-19T04:25:50;13.20;99.90
21039;DHT22;10678;51.002;4.786;2023-11-19T04:28:15;13.10;99.90
21039;DHT22;10678;51.002;4.786;2023-11-19T04:30:41;13.10;99.90
21039;DHT22;10678;51.002;4.786;2023-11-19T04:33:07;13.10;99.90
21039;DHT22;10678;51.002;4.786;2023-11-19T04:35:32;13.10;99.90
21039;DHT22;10678;51.002;4.786;2023-11-19T04:37:58;12.90;99.90
21039;DHT22;10678;51.002;4.786;2023-11-19T04:40:24;12.80;99.90
21039;DHT22;10678;51.002;4.786;2023-11-19T04:42:50;12.90;99.90
21039;DHT22;10678;51.002;4.786;2023-11-19T04:45:16;12.80;99.90
21039;DHT22;10678;51.002;4.786;2023-11-19T04:47:42;12.70;99.90
21039;DHT22;10678;51.002;4.786;2023-11-19T04:50:08;12.70;99.90
21039;DHT22;10678;51.002;4.786;2023-11-19T04:52:38;12.70;99.90
21039;DHT22;10678;51.002;4.786;2023-11-19T04:55:05;12.70;99.90
21039;DHT22;10678;51.002;4.786;2023-11-19T04:57:31;12.70;99.90
21039;DHT22;10678;51.002;4.786;2023-11-19T04:59:58;12.60;99.90
21039;DHT22;10678;51.002;4.786;2023-11-19T05:02:24;12.70;99.90
21039;DHT22;10678;51.002;4.786;2023-11-19T05:04:49;12.70;99.90
21039;DHT22;10678;51.002;4.786;2023-11-19T05:07:15;12.60;99.90
21039;DHT22;10678;51.002;4.786;2023-11-19T05:09:41;12.60;99.90
21039;DHT22;10678;51.002;4.786;2023-11-19T05:12:08;12.70;99.90
21039;DHT22;10678;51.002;4.786;2023-11-19T05:14:37;12.70;99.90
21039;DHT22;10678;51.002;4.786;2023-11-19T05:17:03;12.70;99.90
21039;DHT22;10678;51.002;4.786;2023-11-19T05:19:28;12.70;99.90
21039;DHT22;10678;51.002;4.786;2023-11-19T05:21:54;12.60;99.90
21039;DHT22;10678;51.002;4.786;2023-11-19T05:24:19;12.50;99.90
21039;DHT22;10678;51.002;4.786;2023-11-19T05:26:45;12.60;99.90
21039;DHT22;10678;51.002;4.786;2023-11-19T05:29:12;12.60;99.90
21039;DHT22;10678;51.002;4.786;2023-11-19T05:31:38;12.60;99.90
21039;DHT22;10678;51.002;4.786;2023-11-19T05:34:03;12.50;99.90
21039;DHT22;10678;51.002;4.786;2023-11-19T05:36:29;12.50;99.90
21039;DHT22;10678;51.002;4.786;2023-11-19T05:38:55;12.50;99.90
21039;DHT22;10678;51.002;4.786;2023-11-19T05:41:21;12.40;99.90
21039;DHT22;10678;51.002;4.786;2023-11-19T05:43:46;12.40;99.90
21039;DHT22;10678;51.002;4.786;2023-11-19T05:46:12;12.40;99.90
21039;DHT22;10678;51.002;4.786;2023-11-19T05:48:38;12.40;99.90
21039;DHT22;10678;51.002;4.786;2023-11-19T05:51:04;12.30;99.90
21039;DHT22;10678;51.002;4.786;2023-11-19T05:53:31;12.20;99.90
21039;DHT22;10678;51.002;4.786;2023-11-19T05:55:57;12.20;99.90
21039;DHT22;10678;51.002;4.786;2023-11-19T05:58:26;12.10;99.90
21039;DHT22;10678;51.002;4.786;2023-11-19T06:00:54;12.20;99.90
21039;DHT22;10678;51.002;4.786;2023-11-19T06:03:19;12.30;99.90
21039;DHT22;10678;51.002;4.786;2023-11-19T06:05:47;12.30;99.90
21039;DHT22;10678;51.002;4.786;2023-11-19T06:08:13;12.30;99.90
21039;DHT22;10678;51.002;4.786;2023-11-19T06:10:42;12.10;99.90
21039;DHT22;10678;51.002;4.786;2023-11-19T06:13:08;12.00;99.90
21039;DHT22;10678;51.002;4.786;2023-11-19T06:15:36;12.10;99.90
21039;DHT22;10678;51.002;4.786;2023-11-19T06:18:02;12.10;99.90
21039;DHT22;10678;51.002;4.786;2023-11-19T06:20:32;12.00;99.90
21039;DHT22;10678;51.002;4.786;2023-11-19T06:22:59;11.90;99.90
21039;DHT22;10678;51.002;4.786;2023-11-19T06:25:24;11.90;99.90
21039;DHT22;10678;51.002;4.786;2023-11-19T06:27:51;11.90;99.90
21039;DHT22;10678;51.002;4.786;2023-11-19T06:30:17;11.80;99.90
21039;DHT22;10678;51.002;4.786;2023-11-19T06:32:43;11.80;99.90
21039;DHT22;10678;51.002;4.786;2023-11-19T06:35:08;11.80;99.90
21039;DHT22;10678;51.002;4.786;2023-11-19T06:37:35;12.00;99.90
21039;DHT22;10678;51.002;4.786;2023-11-19T06:40:02;12.10;99.90
21039;DHT22;10678;51.002;4.786;2023-11-19T06:42:29;12.00;99.90
21039;DHT22;10678;51.002;4.786;2023-11-19T06:44:54;12.20;99.90
21039;DHT22;10678;51.002;4.786;2023-11-19T06:47:25;12.10;99.90
21039;DHT22;10678;51.002;4.786;2023-11-19T06:49:50;12.20;99.90
21039;DHT22;10678;51.002;4.786;2023-11-19T06:52:16;12.20;99.90
21039;DHT22;10678;51.002;4.786;2023-11-19T06:54:42;12.20;99.90
21039;DHT22;10678;51.002;4.786;2023-11-19T06:57:08;12.20;99.90
21039;DHT22;10678;51.002;4.786;2023-11-19T06:59:35;12.30;99.90
21039;DHT22;10678;51.002;4.786;2023-11-19T07:02:00;12.40;99.90
21039;DHT22;10678;51.002;4.786;2023-11-19T07:04:26;12.40;99.90
21039;DHT22;10678;51.002;4.786;2023-11-19T07:06:52;12.30;99.90
21039;DHT22;10678;51.002;4.786;2023-11-19T07:09:18;12.10;99.90
21039;DHT22;10678;51.002;4.786;2023-11-19T07:11:44;12.10;99.90
21039;DHT22;10678;51.002;4.786;2023-11-19T07:14:11;12.10;99.90
21039;DHT22;10678;51.002;4.786;2023-11-19T07:16:37;12.00;99.90
21039;DHT22;10678;51.002;4.786;2023-11-19T07:19:04;12.00;99.90
21039;DHT22;10678;51.002;4.786;2023-11-19T07:21:31;12.00;99.90
21039;DHT22;10678;51.002;4.786;2023-11-19T07:23:56;12.00;99.90
21039;DHT22;10678;51.002;4.786;2023-11-19T07:26:23;12.00;99.90
21039;DHT22;10678;51.002;4.786;2023-11-19T07:28:49;12.20;99.90
21039;DHT22;10678;51.002;4.786;2023-11-19T07:31:15;12.20;99.90
21039;DHT22;10678;51.002;4.786;2023-11-19T07:33:40;12.20;99.90
21039;DHT22;10678;51.002;4.786;2023-11-19T07:36:10;12.10;99.90
21039;DHT22;10678;51.002;4.786;2023-11-19T07:38:35;12.20;99.90
21039;DHT22;10678;51.002;4.786;2023-11-19T07:41:01;12.30;99.90
21039;DHT22;10678;51.002;4.786;2023-11-19T07:43:27;12.40;99.90
21039;DHT22;10678;51.002;4.786;2023-11-19T07:45:52;12.40;99.90
21039;DHT22;10678;51.002;4.786;2023-11-19T07:48:18;12.60;99.90
21039;DHT22;10678;51.002;4.786;2023-11-19T07:50:51;12.50;99.90
21039;DHT22;10678;51.002;4.786;2023-11-19T07:53:17;12.60;99.90
21039;DHT22;10678;51.002;4.786;2023-11-19T07:55:42;12.70;99.90
21039;DHT22;10678;51.002;4.786;2023-11-19T07:58:10;12.70;99.90
21039;DHT22;10678;51.002;4.786;2023-11-19T08:00:36;12.70;99.90
21039;DHT22;10678;51.002;4.786;2023-11-19T08:03:03;12.70;99.90
21039;DHT22;10678;51.002;4.786;2023-11-19T08:05:28;12.70;99.90
21039;DHT22;10678;51.002;4.786;2023-11-19T08:07:54;12.70;99.90
21039;DHT22;10678;51.002;4.786;2023-11-19T08:10:20;12.70;99.90
21039;DHT22;10678;51.002;4.786;2023-11-19T08:12:45;12.90;99.90
21039;DHT22;10678;51.002;4.786;2023-11-19T08:15:11;13.00;99.90
21039;DHT22;10678;51.002;4.786;2023-11-19T08:17:37;13.20;99.90
21039;DHT22;10678;51.002;4.786;2023-11-19T08:20:03;13.20;99.90
21039;DHT22;10678;51.002;4.786;2023-11-19T08:22:30;13.40;99.90
21039;DHT22;10678;51.002;4.786;2023-11-19T08:24:56;13.30;99.90
21039;DHT22;10678;51.002;4.786;2023-11-19T08:27:22;13.30;99.90
21039;DHT22;10678;51.002;4.786;2023-11-19T08:29:54;13.30;99.90
21039;DHT22;10678;51.002;4.786;2023-11-19T08:32:25;13.40;99.90
21039;DHT22;10678;51.002;4.786;2023-11-19T08:34:51;13.50;99.90
21039;DHT22;10678;51.002;4.786;2023-11-19T08:37:16;13.80;99.90
21039;DHT22;10678;51.002;4.786;2023-11-19T08:39:49;13.90;99.90
21039;DHT22;10678;51.002;4.786;2023-11-19T08:42:15;13.80;99.90
21039;DHT22;10678;51.002;4.786;2023-11-19T08:44:41;13.90;99.90
21039;DHT22;10678;51.002;4.786;2023-11-19T08:47:13;13.90;99.90
21039;DHT22;10678;51.002;4.786;2023-11-19T08:49:39;13.80;99.90
21039;DHT22;10678;51.002;4.786;2023-11-19T08:52:05;14.00;99.90
21039;DHT22;10678;51.002;4.786;2023-11-19T08:54:33;14.30;99.90
21039;DHT22;10678;51.002;4.786;2023-11-19T08:56:59;14.30;99.90
21039;DHT22;10678;51.002;4.786;2023-11-19T08:59:26;14.20;99.90
21039;DHT22;10678;51.002;4.786;2023-11-19T09:01:52;14.30;99.90
21039;DHT22;10678;51.002;4.786;2023-11-19T09:04:17;14.40;99.90
21039;DHT22;10678;51.002;4.786;2023-11-19T09:06:43;14.40;99.90
21039;DHT22;10678;51.002;4.786;2023-11-19T09:09:09;14.20;99.90
21039;DHT22;10678;51.002;4.786;2023-11-19T09:11:35;14.10;99.90
21039;DHT22;10678;51.002;4.786;2023-11-19T09:14:00;14.20;99.90
21039;DHT22;10678;51.002;4.786;2023-11-19T09:16:26;14.20;99.90
21039;DHT22;10678;51.002;4.786;2023-11-19T09:18:55;14.20;99.90
21039;DHT22;10678;51.002;4.786;2023-11-19T09:21:20;14.30;99.90
21039;DHT22;10678;51.002;4.786;2023-11-19T09:23:46;14.30;99.90
21039;DHT22;10678;51.002;4.786;2023-11-19T09:26:13;14.20;99.90
21039;DHT22;10678;51.002;4.786;2023-11-19T09:28:39;14.00;99.90
21039;DHT22;10678;51.002;4.786;2023-11-19T09:31:13;14.00;99.90
21039;DHT22;10678;51.002;4.786;2023-11-19T09:33:39;14.00;99.90
21039;DHT22;10678;51.002;4.786;2023-11-19T09:36:05;14.00;99.90
21039;DHT22;10678;51.002;4.786;2023-11-19T09:38:31;14.20;99.90
21039;DHT22;10678;51.002;4.786;2023-11-19T09:40:58;14.20;99.90
21039;DHT22;10678;51.002;4.786;2023-11-19T09:43:27;14.20;99.90
21039;DHT22;10678;51.002;4.786;2023-11-19T09:45:55;14.30;99.90
21039;DHT22;10678;51.002;4.786;2023-11-19T09:48:21;14.40;99.90
21039;DHT22;10678;51.002;4.786;2023-11-19T09:50:50;14.30;99.90
21039;DHT22;10678;51.002;4.786;2023-11-19T09:53:17;14.60;99.90
21039;DHT22;10678;51.002;4.786;2023-11-19T09:55:43;14.90;99.90
21039;DHT22;10678;51.002;4.786;2023-11-19T09:58:11;15.40;99.90
21039;DHT22;10678;51.002;4.786;2023-11-19T10:00:39;15.40;99.90
21039;DHT22;10678;51.002;4.786;2023-11-19T10:03:07;15.20;99.90
21039;DHT22;10678;51.002;4.786;2023-11-19T10:05:34;15.20;99.90
21039;DHT22;10678;51.002;4.786;2023-11-19T10:08:01;14.90;99.90
21039;DHT22;10678;51.002;4.786;2023-11-19T10:10:28;14.70;99.90
21039;DHT22;10678;51.002;4.786;2023-11-19T10:12:55;14.80;99.90
21039;DHT22;10678;51.002;4.786;2023-11-19T10:15:22;15.00;99.90
21039;DHT22;10678;51.002;4.786;2023-11-19T10:17:48;15.00;99.90
21039;DHT22;10678;51.002;4.786;2023-11-19T10:20:13;15.10;99.90
21039;DHT22;10678;51.002;4.786;2023-11-19T10:22:39;15.00;99.90
21039;DHT22;10678;51.002;4.786;2023-11-19T10:25:26;14.90;99.90
21039;DHT22;10678;51.002;4.786;2023-11-19T10:27:52;15.30;99.90
21039;DHT22;10678;51.002;4.786;2023-11-19T10:30:29;15.30;99.90
21039;DHT22;10678;51.002;4.786;2023-11-19T10:33:06;15.60;99.90
21039;DHT22;10678;51.002;4.786;2023-11-19T10:35:33;16.10;99.90
21039;DHT22;10678;51.002;4.786;2023-11-19T10:38:21;16.50;99.90
21039;DHT22;10678;51.002;4.786;2023-11-19T10:40:46;16.50;99.90
21039;DHT22;10678;51.002;4.786;2023-11-19T10:43:12;16.50;99.90
21039;DHT22;10678;51.002;4.786;2023-11-19T10:45:38;16.50;99.90
21039;DHT22;10678;51.002;4.786;2023-11-19T10:48:05;16.60;99.90
21039;DHT22;10678;51.002;4.786;2023-11-19T10:50:37;16.30;99.90
21039;DHT22;10678;51.002;4.786;2023-11-19T10:53:04;16.00;99.90
21039;DHT22;10678;51.002;4.786;2023-11-19T10:55:31;15.90;99.90
21039;DHT22;10678;51.002;4.786;2023-11-19T10:57:59;16.00;99.90
21039;DHT22;10678;51.002;4.786;2023-11-19T11:00:28;15.90;99.90
21039;DHT22;10678;51.002;4.786;2023-11-19T11:02:59;15.80;99.90
21039;DHT22;10678;51.002;4.786;2023-11-19T11:05:26;15.40;99.90
21039;DHT22;10678;51.002;4.786;2023-11-19T11:07:54;15.20;99.90
21039;DHT22;10678;51.002;4.786;2023-11-19T11:10:22;15.00;99.90
21039;DHT22;10678;51.002;4.786;2023-11-19T11:12:52;15.00;99.90
21039;DHT22;10678;51.002;4.786;2023-11-19T11:15:27;14.80;99.90
21039;DHT22;10678;51.002;4.786;2023-11-19T11:17:59;14.60;99.90
21039;DHT22;10678;51.002;4.786;2023-11-19T11:20:25;14.90;99.90
21039;DHT22;10678;51.002;4.786;2023-11-19T11:31:44;15.80;99.90
21039;DHT22;10678;51.002;4.786;2023-11-19T11:39:39;15.70;99.90
21039;DHT22;10678;51.002;4.786;2023-11-19T11:50:11;16.20;99.90
21039;DHT22;10678;51.002;4.786;2023-11-19T11:57:56;19.40;99.90
21039;DHT22;10678;51.002;4.786;2023-11-19T12:00:27;20.20;99.90
21039;DHT22;10678;51.002;4.786;2023-11-19T12:02:59;19.70;99.90
21039;DHT22;10678;51.002;4.786;2023-11-19T12:05:25;19.20;99.90
21039;DHT22;10678;51.002;4.786;2023-11-19T12:08:00;19.00;99.90
21039;DHT22;10678;51.002;4.786;2023-11-19T12:10:29;18.60;99.90
21039;DHT22;10678;51.002;4.786;2023-11-19T12:13:01;17.90;99.90
21039;DHT22;10678;51.002;4.786;2023-11-19T12:15:30;17.90;99.90
21039;DHT22;10678;51.002;4.786;2023-11-19T12:17:56;17.90;99.90
21039;DHT22;10678;51.002;4.786;2023-11-19T12:20:23;17.40;99.90
21039;DHT22;10678;51.002;4.786;2023-11-19T12:22:50;17.10;99.90
21039;DHT22;10678;51.002;4.786;2023-11-19T12:25:16;16.60;99.90
21039;DHT22;10678;51.002;4.786;2023-11-19T12:27:47;16.50;99.90
21039;DHT22;10678;51.002;4.786;2023-11-19T12:30:25;16.40;99.90
21039;DHT22;10678;51.002;4.786;2023-11-19T12:32:52;16.10;99.90
21039;DHT22;10678;51.002;4.786;2023-11-19T12:35:19;16.00;99.90
21039;DHT22;10678;51.002;4.786;2023-11-19T12:37:51;15.70;99.90
21039;DHT22;10678;51.002;4.786;2023-11-19T12:40:18;15.80;99.90
21039;DHT22;10678;51.002;4.786;2023-11-19T12:42:45;15.60;99.90
21039;DHT22;10678;51.002;4.786;2023-11-19T12:45:11;15.50;99.90
21039;DHT22;10678;51.002;4.786;2023-11-19T12:47:39;15.50;99.90
21039;DHT22;10678;51.002;4.786;2023-11-19T12:50:06;15.50;99.90
21039;DHT22;10678;51.002;4.786;2023-11-19T12:52:32;15.40;99.90
21039;DHT22;10678;51.002;4.786;2023-11-19T12:54:58;15.10;99.90
21039;DHT22;10678;51.002;4.786;2023-11-19T12:57:41;15.10;99.90
21039;DHT22;10678;51.002;4.786;2023-11-19T13:00:17;15.10;99.90
21039;DHT22;10678;51.002;4.786;2023-11-19T13:02:50;15.10;99.90
21039;DHT22;10678;51.002;4.786;2023-11-19T13:05:31;15.10;99.90
21039;DHT22;10678;51.002;4.786;2023-11-19T13:08:05;15.00;99.90
21039;DHT22;10678;51.002;4.786;2023-11-19T13:10:52;15.00;99.90
21039;DHT22;10678;51.002;4.786;2023-11-19T13:13:19;14.90;99.90
21039;DHT22;10678;51.002;4.786;2023-11-19T13:15:44;15.00;99.90
21039;DHT22;10678;51.002;4.786;2023-11-19T13:18:10;15.10;99.90
21039;DHT22;10678;51.002;4.786;2023-11-19T13:20:36;15.00;99.90
21039;DHT22;10678;51.002;4.786;2023-11-19T13:23:03;14.90;99.90
21039;DHT22;10678;51.002;4.786;2023-11-19T13:25:30;14.90;99.90
21039;DHT22;10678;51.002;4.786;2023-11-19T13:27:56;15.00;99.90
21039;DHT22;10678;51.002;4.786;2023-11-19T13:30:22;15.10;99.90
21039;DHT22;10678;51.002;4.786;2023-11-19T13:32:49;15.10;99.90
21039;DHT22;10678;51.002;4.786;2023-11-19T13:35:16;15.10;99.90
21039;DHT22;10678;51.002;4.786;2023-11-19T13:37:45;15.00;99.90
21039;DHT22;10678;51.002;4.786;2023-11-19T13:40:12;15.10;99.90
21039;DHT22;10678;51.002;4.786;2023-11-19T13:42:44;15.10;99.90
21039;DHT22;10678;51.002;4.786;2023-11-19T13:45:11;14.90;99.90
21039;DHT22;10678;51.002;4.786;2023-11-19T13:47:45;14.70;99.90
21039;DHT22;10678;51.002;4.786;2023-11-19T13:50:15;14.50;99.90
21039;DHT22;10678;51.002;4.786;2023-11-19T13:52:43;14.40;99.90
21039;DHT22;10678;51.002;4.786;2023-11-19T13:55:10;14.40;99.90
21039;DHT22;10678;51.002;4.786;2023-11-19T13:57:38;14.40;99.90
21039;DHT22;10678;51.002;4.786;2023-11-19T14:00:05;14.50;99.90
21039;DHT22;10678;51.002;4.786;2023-11-19T14:02:35;14.60;99.90
21039;DHT22;10678;51.002;4.786;2023-11-19T14:05:00;14.70;99.90
21039;DHT22;10678;51.002;4.786;2023-11-19T14:07:26;14.70;99.90
21039;DHT22;10678;51.002;4.786;2023-11-19T14:09:53;14.80;99.90
21039;DHT22;10678;51.002;4.786;2023-11-19T14:12:19;14.70;99.90
21039;DHT22;10678;51.002;4.786;2023-11-19T14:14:45;14.60;99.90
21039;DHT22;10678;51.002;4.786;2023-11-19T14:17:11;14.50;99.90
21039;DHT22;10678;51.002;4.786;2023-11-19T14:19:37;14.30;99.90
21039;DHT22;10678;51.002;4.786;2023-11-19T14:22:04;14.10;99.90
21039;DHT22;10678;51.002;4.786;2023-11-19T14:24:30;14.30;99.90
21039;DHT22;10678;51.002;4.786;2023-11-19T14:26:56;14.60;99.90
21039;DHT22;10678;51.002;4.786;2023-11-19T14:29:24;14.30;99.90
21039;DHT22;10678;51.002;4.786;2023-11-19T14:31:51;14.40;99.90
21039;DHT22;10678;51.002;4.786;2023-11-19T14:34:18;14.30;99.90
21039;DHT22;10678;51.002;4.786;2023-11-19T14:36:44;14.40;99.90
21039;DHT22;10678;51.002;4.786;2023-11-19T14:39:10;14.30;99.90
21039;DHT22;10678;51.002;4.786;2023-11-19T14:41:36;14.30;99.90
21039;DHT22;10678;51.002;4.786;2023-11-19T14:44:01;14.30;99.90
21039;DHT22;10678;51.002;4.786;2023-11-19T14:46:28;14.10;99.90
21039;DHT22;10678;51.002;4.786;2023-11-19T14:48:54;14.10;99.90
21039;DHT22;10678;51.002;4.786;2023-11-19T14:51:20;14.20;99.90
21039;DHT22;10678;51.002;4.786;2023-11-19T14:53:46;14.30;99.90
21039;DHT22;10678;51.002;4.786;2023-11-19T14:56:12;14.30;99.90
21039;DHT22;10678;51.002;4.786;2023-11-19T14:58:38;14.20;99.90
21039;DHT22;10678;51.002;4.786;2023-11-19T15:01:04;14.10;99.90
21039;DHT22;10678;51.002;4.786;2023-11-19T15:03:30;14.10;99.90
21039;DHT22;10678;51.002;4.786;2023-11-19T15:05:56;14.10;99.90
21039;DHT22;10678;51.002;4.786;2023-11-19T15:08:22;14.00;99.90
21039;DHT22;10678;51.002;4.786;2023-11-19T15:10:48;14.10;99.90
21039;DHT22;10678;51.002;4.786;2023-11-19T15:13:13;13.90;99.90
21039;DHT22;10678;51.002;4.786;2023-11-19T15:15:39;13.70;99.90
21039;DHT22;10678;51.002;4.786;2023-11-19T15:18:05;13.80;99.90
21039;DHT22;10678;51.002;4.786;2023-11-19T15:20:31;13.80;99.90
21039;DHT22;10678;51.002;4.786;2023-11-19T15:22:57;13.90;99.90
21039;DHT22;10678;51.002;4.786;2023-11-19T15:25:23;13.80;99.90
21039;DHT22;10678;51.002;4.786;2023-11-19T15:27:49;14.00;99.90
21039;DHT22;10678;51.002;4.786;2023-11-19T15:30:15;13.90;99.90
21039;DHT22;10678;51.002;4.786;2023-11-19T15:32:42;13.90;99.90
21039;DHT22;10678;51.002;4.786;2023-11-19T15:35:09;13.80;99.90
21039;DHT22;10678;51.002;4.786;2023-11-19T15:37:38;13.80;99.90
21039;DHT22;10678;51.002;4.786;2023-11-19T15:40:09;13.70;99.90
21039;DHT22;10678;51.002;4.786;2023-11-19T15:42:37;13.80;99.90
21039;DHT22;10678;51.002;4.786;2023-11-19T15:45:03;13.80;99.90
21039;DHT22;10678;51.002;4.786;2023-11-19T15:47:30;13.70;99.90
21039;DHT22;10678;51.002;4.786;2023-11-19T15:49:56;13.70;99.90
21039;DHT22;10678;51.002;4.786;2023-11-19T15:52:21;13.60;99.90
21039;DHT22;10678;51.002;4.786;2023-11-19T15:54:47;13.70;99.90
21039;DHT22;10678;51.002;4.786;2023-11-19T15:57:13;13.70;99.90